sensor_id;sensor_type;location;lat;lon;timestamp;P1;durP1;ratioP1;P2;durP2;ratioP2
42420;SDS011;28063;48.140;11.588;2023-07-31T00:00:28;0.70;;;0.70;;
42420;SDS011;28063;48.140;11.588;2023-07-31T00:02:53;0.60;;;0.60;;
42420;SDS011;28063;48.140;11.588;2023-07-31T00:05:20;0.73;;;0.73;;
42420;SDS011;28063;48.140;11.588;2023-07-31T00:07:46;0.60;;;0.60;;
42420;SDS011;28063;48.140;11.588;2023-07-31T00:10:12;0.60;;;0.60;;
42420;SDS011;28063;48.140;11.588;2023-07-31T00:12:38;0.60;;;0.60;;
42420;SDS011;28063;48.140;11.588;2023-07-31T00:15:06;0.50;;;0.50;;
42420;SDS011;28063;48.140;11.588;2023-07-31T00:17:32;1.00;;;0.70;;
42420;SDS011;28063;48.140;11.588;2023-07-31T00:19:58;0.52;;;0.52;;
42420;SDS011;28063;48.140;11.588;2023-07-31T00:22:24;0.45;;;0.45;;
42420;SDS011;28063;48.140;11.588;2023-07-31T00:24:49;0.52;;;0.52;;
42420;SDS011;28063;48.140;11.588;2023-07-31T00:27:17;0.40;;;0.40;;
42420;SDS011;28063;48.140;11.588;2023-07-31T00:29:43;0.40;;;0.40;;
42420;SDS011;28063;48.140;11.588;2023-07-31T00:32:09;0.50;;;0.50;;
42420;SDS011;28063;48.140;11.588;2023-07-31T00:34:34;0.50;;;0.50;;
42420;SDS011;28063;48.140;11.588;2023-07-31T00:37:00;0.40;;;0.40;;
42420;SDS011;28063;48.140;11.588;2023-07-31T00:39:25;0.52;;;0.52;;
42420;SDS011;28063;48.140;11.588;2023-07-31T00:41:51;0.50;;;0.50;;
42420;SDS011;28063;48.140;11.588;2023-07-31T00:44:17;0.32;;;0.32;;
42420;SDS011;28063;48.140;11.588;2023-07-31T00:46:42;0.38;;;0.38;;
42420;SDS011;28063;48.140;11.588;2023-07-31T00:49:08;0.68;;;0.68;;
42420;SDS011;28063;48.140;11.588;2023-07-31T00:51:34;0.63;;;0.63;;
42420;SDS011;28063;48.140;11.588;2023-07-31T00:54:00;0.65;;;0.52;;
42420;SDS011;28063;48.140;11.588;2023-07-31T00:56:27;0.40;;;0.40;;
42420;SDS011;28063;48.140;11.588;2023-07-31T00:58:53;0.50;;;0.50;;
42420;SDS011;28063;48.140;11.588;2023-07-31T01:01:20;0.70;;;0.70;;
42420;SDS011;28063;48.140;11.588;2023-07-31T01:03:46;0.40;;;0.40;;
42420;SDS011;28063;48.140;11.588;2023-07-31T01:06:18;0.65;;;0.65;;
42420;SDS011;28063;48.140;11.588;2023-07-31T01:09:01;1.00;;;0.60;;
42420;SDS011;28063;48.140;11.588;2023-07-31T01:11:42;0.70;;;0.70;;
42420;SDS011;28063;48.140;11.588;2023-07-31T01:14:11;0.50;;;0.50;;
42420;SDS011;28063;48.140;11.588;2023-07-31T01:16:37;0.50;;;0.50;;
42420;SDS011;28063;48.140;11.588;2023-07-31T01:19:03;0.60;;;0.60;;
42420;SDS011;28063;48.140;11.588;2023-07-31T01:26:36;0.50;;;0.50;;
42420;SDS011;28063;48.140;11.588;2023-07-31T01:29:06;0.32;;;0.32;;
42420;SDS011;28063;48.140;11.588;2023-07-31T01:31:36;0.30;;;0.30;;
42420;SDS011;28063;48.140;11.588;2023-07-31T01:34:04;0.50;;;0.50;;
42420;SDS011;28063;48.140;11.588;2023-07-31T01:36:32;0.47;;;0.47;;
42420;SDS011;28063;48.140;11.588;2023-07-31T01:38:59;0.43;;;0.43;;
42420;SDS011;28063;48.140;11.588;2023-07-31T01:41:25;0.30;;;0.30;;
42420;SDS011;28063;48.140;11.588;2023-07-31T01:43:51;0.25;;;0.25;;
42420;SDS011;28063;48.140;11.588;2023-07-31T01:46:17;0.60;;;0.60;;
42420;SDS011;28063;48.140;11.588;2023-07-31T01:48:42;0.73;;;0.50;;
42420;SDS011;28063;48.140;11.588;2023-07-31T01:51:08;0.32;;;0.32;;
42420;SDS011;28063;48.140;11.588;2023-07-31T01:53:33;0.32;;;0.32;;
42420;SDS011;28063;48.140;11.588;2023-07-31T01:55:59;0.22;;;0.22;;
42420;SDS011;28063;48.140;11.588;2023-07-31T01:58:25;0.50;;;0.50;;
42420;SDS011;28063;48.140;11.588;2023-07-31T02:00:51;0.30;;;0.30;;
42420;SDS011;28063;48.140;11.588;2023-07-31T02:03:16;0.57;;;0.57;;
42420;SDS011;28063;48.140;11.588;2023-07-31T02:05:45;0.32;;;0.32;;
42420;SDS011;28063;48.140;11.588;2023-07-31T02:08:15;0.40;;;0.40;;
42420;SDS011;28063;48.140;11.588;2023-07-31T02:10:41;0.40;;;0.40;;
42420;SDS011;28063;48.140;11.588;2023-07-31T02:13:07;0.40;;;0.40;;
42420;SDS011;28063;48.140;11.588;2023-07-31T02:15:33;0.50;;;0.50;;
42420;SDS011;28063;48.140;11.588;2023-07-31T02:17:59;0.50;;;0.50;;
42420;SDS011;28063;48.140;11.588;2023-07-31T02:20:25;0.30;;;0.30;;
42420;SDS011;28063;48.140;11.588;2023-07-31T02:22:51;0.50;;;0.50;;
42420;SDS011;28063;48.140;11.588;2023-07-31T02:25:16;0.40;;;0.40;;
42420;SDS011;28063;48.140;11.588;2023-07-31T02:27:42;0.47;;;0.47;;
42420;SDS011;28063;48.140;11.588;2023-07-31T02:30:08;0.50;;;0.50;;
42420;SDS011;28063;48.140;11.588;2023-07-31T02:32:34;0.32;;;0.32;;
42420;SDS011;28063;48.140;11.588;2023-07-31T02:34:59;0.60;;;0.60;;
42420;SDS011;28063;48.140;11.588;2023-07-31T02:37:25;0.50;;;0.50;;
42420;SDS011;28063;48.140;11.588;2023-07-31T02:39:51;0.47;;;0.47;;
42420;SDS011;28063;48.140;11.588;2023-07-31T02:42:17;0.50;;;0.50;;
42420;SDS011;28063;48.140;11.588;2023-07-31T02:44:42;0.50;;;0.50;;
42420;SDS011;28063;48.140;11.588;2023-07-31T02:47:08;0.30;;;0.30;;
42420;SDS011;28063;48.140;11.588;2023-07-31T02:49:34;0.60;;;0.60;;
42420;SDS011;28063;48.140;11.588;2023-07-31T02:52:00;0.60;;;0.60;;
42420;SDS011;28063;48.140;11.588;2023-07-31T02:54:25;0.73;;;0.73;;
42420;SDS011;28063;48.140;11.588;2023-07-31T02:56:51;0.50;;;0.50;;
42420;SDS011;28063;48.140;11.588;2023-07-31T02:59:17;0.90;;;0.80;;
42420;SDS011;28063;48.140;11.588;2023-07-31T03:01:43;0.57;;;0.57;;
42420;SDS011;28063;48.140;11.588;2023-07-31T03:04:09;0.82;;;0.70;;
42420;SDS011;28063;48.140;11.588;2023-07-31T03:06:34;0.57;;;0.57;;
42420;SDS011;28063;48.140;11.588;2023-07-31T03:09:00;0.60;;;0.60;;
42420;SDS011;28063;48.140;11.588;2023-07-31T03:11:26;0.80;;;0.80;;
42420;SDS011;28063;48.140;11.588;2023-07-31T03:13:51;0.68;;;0.68;;
42420;SDS011;28063;48.140;11.588;2023-07-31T03:16:17;0.60;;;0.60;;
42420;SDS011;28063;48.140;11.588;2023-07-31T03:18:43;0.50;;;0.50;;
42420;SDS011;28063;48.140;11.588;2023-07-31T03:21:08;0.57;;;0.57;;
42420;SDS011;28063;48.140;11.588;2023-07-31T03:23:34;0.63;;;0.63;;
42420;SDS011;28063;48.140;11.588;2023-07-31T03:26:00;0.52;;;0.52;;
42420;SDS011;28063;48.140;11.588;2023-07-31T03:28:28;0.60;;;0.60;;
42420;SDS011;28063;48.140;11.588;2023-07-31T03:30:54;0.50;;;0.50;;
42420;SDS011;28063;48.140;11.588;2023-07-31T03:33:20;0.50;;;0.50;;
42420;SDS011;28063;48.140;11.588;2023-07-31T03:35:46;0.77;;;0.77;;
42420;SDS011;28063;48.140;11.588;2023-07-31T03:38:12;0.55;;;0.55;;
42420;SDS011;28063;48.140;11.588;2023-07-31T03:40:37;0.70;;;0.70;;
42420;SDS011;28063;48.140;11.588;2023-07-31T03:43:03;1.00;;;1.00;;
42420;SDS011;28063;48.140;11.588;2023-07-31T03:45:29;1.10;;;1.00;;
42420;SDS011;28063;48.140;11.588;2023-07-31T03:47:55;0.88;;;0.88;;
42420;SDS011;28063;48.140;11.588;2023-07-31T03:50:21;0.98;;;0.98;;
42420;SDS011;28063;48.140;11.588;2023-07-31T03:52:46;0.90;;;0.90;;
42420;SDS011;28063;48.140;11.588;2023-07-31T03:55:12;0.90;;;0.90;;
42420;SDS011;28063;48.140;11.588;2023-07-31T03:57:38;0.90;;;0.90;;
42420;SDS011;28063;48.140;11.588;2023-07-31T04:00:03;1.58;;;1.08;;
42420;SDS011;28063;48.140;11.588;2023-07-31T04:02:30;0.90;;;0.90;;
42420;SDS011;28063;48.140;11.588;2023-07-31T04:04:55;1.33;;;1.10;;
42420;SDS011;28063;48.140;11.588;2023-07-31T04:07:21;1.00;;;0.90;;
42420;SDS011;28063;48.140;11.588;2023-07-31T04:09:46;1.45;;;0.90;;
42420;SDS011;28063;48.140;11.588;2023-07-31T04:12:12;1.33;;;1.00;;
42420;SDS011;28063;48.140;11.588;2023-07-31T04:14:38;0.98;;;0.98;;
42420;SDS011;28063;48.140;11.588;2023-07-31T04:17:03;0.82;;;0.80;;
42420;SDS011;28063;48.140;11.588;2023-07-31T04:19:29;0.70;;;0.70;;
42420;SDS011;28063;48.140;11.588;2023-07-31T04:21:55;0.85;;;0.85;;
42420;SDS011;28063;48.140;11.588;2023-07-31T04:24:20;0.77;;;0.77;;
42420;SDS011;28063;48.140;11.588;2023-07-31T04:26:52;0.90;;;0.90;;
42420;SDS011;28063;48.140;11.588;2023-07-31T04:29:18;0.77;;;0.77;;
42420;SDS011;28063;48.140;11.588;2023-07-31T04:31:44;0.70;;;0.70;;
42420;SDS011;28063;48.140;11.588;2023-07-31T04:34:10;1.58;;;0.90;;
42420;SDS011;28063;48.140;11.588;2023-07-31T04:36:39;0.73;;;0.73;;
42420;SDS011;28063;48.140;11.588;2023-07-31T04:39:05;0.85;;;0.80;;
42420;SDS011;28063;48.140;11.588;2023-07-31T04:41:31;0.90;;;0.90;;
42420;SDS011;28063;48.140;11.588;2023-07-31T04:43:56;1.42;;;0.98;;
42420;SDS011;28063;48.140;11.588;2023-07-31T04:46:22;0.93;;;0.90;;
42420;SDS011;28063;48.140;11.588;2023-07-31T04:48:48;1.00;;;1.00;;
42420;SDS011;28063;48.140;11.588;2023-07-31T04:51:13;1.00;;;1.00;;
42420;SDS011;28063;48.140;11.588;2023-07-31T04:53:39;0.85;;;0.85;;
42420;SDS011;28063;48.140;11.588;2023-07-31T04:56:05;0.80;;;0.80;;
42420;SDS011;28063;48.140;11.588;2023-07-31T04:58:30;0.90;;;0.90;;
42420;SDS011;28063;48.140;11.588;2023-07-31T05:00:56;0.73;;;0.73;;
42420;SDS011;28063;48.140;11.588;2023-07-31T05:03:22;0.80;;;0.80;;
42420;SDS011;28063;48.140;11.588;2023-07-31T05:05:47;0.77;;;0.77;;
42420;SDS011;28063;48.140;11.588;2023-07-31T05:08:13;0.70;;;0.70;;
42420;SDS011;28063;48.140;11.588;2023-07-31T05:10:39;0.70;;;0.70;;
42420;SDS011;28063;48.140;11.588;2023-07-31T05:13:04;0.73;;;0.73;;
42420;SDS011;28063;48.140;11.588;2023-07-31T05:15:30;0.70;;;0.70;;
42420;SDS011;28063;48.140;11.588;2023-07-31T05:17:56;0.90;;;0.90;;
42420;SDS011;28063;48.140;11.588;2023-07-31T05:20:22;0.80;;;0.80;;
42420;SDS011;28063;48.140;11.588;2023-07-31T05:22:47;1.70;;;1.50;;
42420;SDS011;28063;48.140;11.588;2023-07-31T05:25:13;4.95;;;1.05;;
42420;SDS011;28063;48.140;11.588;2023-07-31T05:27:39;1.17;;;1.13;;
42420;SDS011;28063;48.140;11.588;2023-07-31T05:30:05;1.05;;;1.05;;
42420;SDS011;28063;48.140;11.588;2023-07-31T05:32:31;1.20;;;1.08;;
42420;SDS011;28063;48.140;11.588;2023-07-31T05:34:57;1.02;;;0.93;;
42420;SDS011;28063;48.140;11.588;2023-07-31T05:37:23;0.70;;;0.70;;
42420;SDS011;28063;48.140;11.588;2023-07-31T05:39:49;0.93;;;0.90;;
42420;SDS011;28063;48.140;11.588;2023-07-31T05:42:14;0.90;;;0.80;;
42420;SDS011;28063;48.140;11.588;2023-07-31T05:44:40;0.70;;;0.70;;
42420;SDS011;28063;48.140;11.588;2023-07-31T05:47:06;0.68;;;0.68;;
42420;SDS011;28063;48.140;11.588;2023-07-31T05:49:31;0.77;;;0.77;;
42420;SDS011;28063;48.140;11.588;2023-07-31T05:51:57;0.80;;;0.80;;
42420;SDS011;28063;48.140;11.588;2023-07-31T05:54:23;0.98;;;0.98;;
42420;SDS011;28063;48.140;11.588;2023-07-31T05:56:49;1.00;;;1.00;;
42420;SDS011;28063;48.140;11.588;2023-07-31T05:59:16;1.30;;;1.20;;
42420;SDS011;28063;48.140;11.588;2023-07-31T06:01:41;1.00;;;0.90;;
42420;SDS011;28063;48.140;11.588;2023-07-31T06:04:07;1.33;;;1.23;;
42420;SDS011;28063;48.140;11.588;2023-07-31T06:06:33;1.92;;;1.60;;
42420;SDS011;28063;48.140;11.588;2023-07-31T06:08:59;1.23;;;1.10;;
42420;SDS011;28063;48.140;11.588;2023-07-31T06:11:25;1.10;;;1.00;;
42420;SDS011;28063;48.140;11.588;2023-07-31T06:13:51;1.20;;;1.10;;
42420;SDS011;28063;48.140;11.588;2023-07-31T06:16:16;1.25;;;1.15;;
42420;SDS011;28063;48.140;11.588;2023-07-31T06:18:42;2.35;;;1.42;;
42420;SDS011;28063;48.140;11.588;2023-07-31T06:21:08;2.47;;;1.50;;
42420;SDS011;28063;48.140;11.588;2023-07-31T06:23:35;2.22;;;1.58;;
42420;SDS011;28063;48.140;11.588;2023-07-31T06:26:00;3.13;;;2.00;;
42420;SDS011;28063;48.140;11.588;2023-07-31T06:28:29;2.58;;;1.45;;
42420;SDS011;28063;48.140;11.588;2023-07-31T06:30:57;1.48;;;1.38;;
42420;SDS011;28063;48.140;11.588;2023-07-31T06:33:23;2.45;;;1.40;;
42420;SDS011;28063;48.140;11.588;2023-07-31T06:35:49;1.40;;;1.30;;
42420;SDS011;28063;48.140;11.588;2023-07-31T06:38:15;1.83;;;1.33;;
42420;SDS011;28063;48.140;11.588;2023-07-31T06:40:43;2.13;;;1.27;;
42420;SDS011;28063;48.140;11.588;2023-07-31T06:43:09;1.30;;;1.02;;
42420;SDS011;28063;48.140;11.588;2023-07-31T06:45:35;1.30;;;1.20;;
42420;SDS011;28063;48.140;11.588;2023-07-31T06:48:01;1.38;;;1.00;;
42420;SDS011;28063;48.140;11.588;2023-07-31T06:50:28;3.15;;;1.20;;
42420;SDS011;28063;48.140;11.588;2023-07-31T06:52:53;2.03;;;1.40;;
42420;SDS011;28063;48.140;11.588;2023-07-31T06:55:20;1.40;;;1.30;;
42420;SDS011;28063;48.140;11.588;2023-07-31T06:57:47;3.17;;;1.60;;
42420;SDS011;28063;48.140;11.588;2023-07-31T07:00:14;1.70;;;1.60;;
42420;SDS011;28063;48.140;11.588;2023-07-31T07:02:40;3.00;;;1.40;;
42420;SDS011;28063;48.140;11.588;2023-07-31T07:05:06;2.95;;;1.45;;
42420;SDS011;28063;48.140;11.588;2023-07-31T07:07:33;2.05;;;1.55;;
42420;SDS011;28063;48.140;11.588;2023-07-31T07:09:59;1.83;;;1.60;;
42420;SDS011;28063;48.140;11.588;2023-07-31T07:12:25;2.15;;;1.40;;
42420;SDS011;28063;48.140;11.588;2023-07-31T07:14:51;2.22;;;1.33;;
42420;SDS011;28063;48.140;11.588;2023-07-31T07:17:18;1.30;;;1.13;;
42420;SDS011;28063;48.140;11.588;2023-07-31T07:19:44;1.25;;;1.15;;
42420;SDS011;28063;48.140;11.588;2023-07-31T07:22:10;1.60;;;1.50;;
42420;SDS011;28063;48.140;11.588;2023-07-31T07:24:37;1.85;;;1.10;;
42420;SDS011;28063;48.140;11.588;2023-07-31T07:27:02;2.97;;;1.63;;
42420;SDS011;28063;48.140;11.588;2023-07-31T07:29:28;1.50;;;1.15;;
42420;SDS011;28063;48.140;11.588;2023-07-31T07:31:54;1.30;;;1.20;;
42420;SDS011;28063;48.140;11.588;2023-07-31T07:34:22;1.90;;;1.20;;
42420;SDS011;28063;48.140;11.588;2023-07-31T07:36:49;1.83;;;1.30;;
42420;SDS011;28063;48.140;11.588;2023-07-31T07:39:15;2.35;;;1.42;;
42420;SDS011;28063;48.140;11.588;2023-07-31T07:41:40;1.63;;;1.30;;
42420;SDS011;28063;48.140;11.588;2023-07-31T07:44:07;3.38;;;1.27;;
42420;SDS011;28063;48.140;11.588;2023-07-31T07:46:33;1.48;;;1.38;;
42420;SDS011;28063;48.140;11.588;2023-07-31T07:48:59;1.52;;;1.27;;
42420;SDS011;28063;48.140;11.588;2023-07-31T07:51:25;1.38;;;1.27;;
42420;SDS011;28063;48.140;11.588;2023-07-31T07:53:50;1.45;;;1.13;;
42420;SDS011;28063;48.140;11.588;2023-07-31T07:56:16;4.25;;;1.83;;
42420;SDS011;28063;48.140;11.588;2023-07-31T07:58:42;1.63;;;1.48;;
42420;SDS011;28063;48.140;11.588;2023-07-31T08:01:07;1.70;;;1.23;;
42420;SDS011;28063;48.140;11.588;2023-07-31T08:03:33;1.38;;;1.13;;
42420;SDS011;28063;48.140;11.588;2023-07-31T08:05:59;2.13;;;1.40;;
42420;SDS011;28063;48.140;11.588;2023-07-31T08:08:26;1.60;;;1.10;;
42420;SDS011;28063;48.140;11.588;2023-07-31T08:10:51;1.30;;;1.20;;
42420;SDS011;28063;48.140;11.588;2023-07-31T08:13:17;2.08;;;1.50;;
42420;SDS011;28063;48.140;11.588;2023-07-31T08:15:43;1.95;;;1.40;;
42420;SDS011;28063;48.140;11.588;2023-07-31T08:18:09;1.67;;;1.05;;
42420;SDS011;28063;48.140;11.588;2023-07-31T08:20:36;2.05;;;1.77;;
42420;SDS011;28063;48.140;11.588;2023-07-31T08:23:02;2.20;;;1.50;;
42420;SDS011;28063;48.140;11.588;2023-07-31T08:25:28;1.60;;;1.50;;
42420;SDS011;28063;48.140;11.588;2023-07-31T08:27:54;1.77;;;1.50;;
42420;SDS011;28063;48.140;11.588;2023-07-31T08:30:20;1.55;;;1.35;;
42420;SDS011;28063;48.140;11.588;2023-07-31T08:32:46;1.85;;;1.33;;
42420;SDS011;28063;48.140;11.588;2023-07-31T08:35:12;1.65;;;1.25;;
42420;SDS011;28063;48.140;11.588;2023-07-31T08:37:38;1.88;;;1.42;;
42420;SDS011;28063;48.140;11.588;2023-07-31T08:40:04;1.63;;;1.52;;
42420;SDS011;28063;48.140;11.588;2023-07-31T08:42:31;1.88;;;1.35;;
42420;SDS011;28063;48.140;11.588;2023-07-31T08:44:57;2.53;;;1.70;;
42420;SDS011;28063;48.140;11.588;2023-07-31T08:47:25;3.70;;;1.63;;
42420;SDS011;28063;48.140;11.588;2023-07-31T08:49:51;2.90;;;1.50;;
42420;SDS011;28063;48.140;11.588;2023-07-31T08:52:19;2.72;;;1.38;;
42420;SDS011;28063;48.140;11.588;2023-07-31T08:54:44;1.60;;;1.50;;
42420;SDS011;28063;48.140;11.588;2023-07-31T08:57:10;2.20;;;1.73;;
42420;SDS011;28063;48.140;11.588;2023-07-31T08:59:37;1.75;;;1.30;;
42420;SDS011;28063;48.140;11.588;2023-07-31T09:02:07;3.60;;;1.45;;
42420;SDS011;28063;48.140;11.588;2023-07-31T09:04:34;1.92;;;1.30;;
42420;SDS011;28063;48.140;11.588;2023-07-31T09:07:01;3.47;;;1.67;;
42420;SDS011;28063;48.140;11.588;2023-07-31T09:09:29;7.07;;;1.80;;
42420;SDS011;28063;48.140;11.588;2023-07-31T09:11:57;1.92;;;1.67;;
42420;SDS011;28063;48.140;11.588;2023-07-31T09:14:24;1.77;;;1.48;;
42420;SDS011;28063;48.140;11.588;2023-07-31T09:16:55;1.50;;;1.20;;
42420;SDS011;28063;48.140;11.588;2023-07-31T09:19:27;1.83;;;1.45;;
42420;SDS011;28063;48.140;11.588;2023-07-31T09:21:55;2.67;;;1.35;;
42420;SDS011;28063;48.140;11.588;2023-07-31T09:24:30;1.67;;;1.50;;
42420;SDS011;28063;48.140;11.588;2023-07-31T09:26:57;1.73;;;1.30;;
42420;SDS011;28063;48.140;11.588;2023-07-31T09:29:24;1.42;;;1.30;;
42420;SDS011;28063;48.140;11.588;2023-07-31T09:31:51;2.40;;;1.45;;
42420;SDS011;28063;48.140;11.588;2023-07-31T09:34:18;2.15;;;1.55;;
42420;SDS011;28063;48.140;11.588;2023-07-31T09:36:48;2.47;;;1.50;;
42420;SDS011;28063;48.140;11.588;2023-07-31T09:39:16;1.70;;;1.20;;
42420;SDS011;28063;48.140;11.588;2023-07-31T09:41:47;1.83;;;1.20;;
42420;SDS011;28063;48.140;11.588;2023-07-31T09:44:19;2.20;;;1.20;;
42420;SDS011;28063;48.140;11.588;2023-07-31T09:46:45;1.77;;;1.48;;
42420;SDS011;28063;48.140;11.588;2023-07-31T09:49:11;3.53;;;1.20;;
42420;SDS011;28063;48.140;11.588;2023-07-31T09:51:39;2.35;;;1.38;;
42420;SDS011;28063;48.140;11.588;2023-07-31T09:54:16;3.25;;;1.60;;
42420;SDS011;28063;48.140;11.588;2023-07-31T09:56:48;2.58;;;1.33;;
42420;SDS011;28063;48.140;11.588;2023-07-31T09:59:15;2.47;;;1.52;;
42420;SDS011;28063;48.140;11.588;2023-07-31T10:01:42;2.97;;;1.70;;
42420;SDS011;28063;48.140;11.588;2023-07-31T10:04:13;3.38;;;1.42;;
42420;SDS011;28063;48.140;11.588;2023-07-31T10:06:40;2.75;;;1.80;;
42420;SDS011;28063;48.140;11.588;2023-07-31T10:09:08;3.10;;;1.65;;
42420;SDS011;28063;48.140;11.588;2023-07-31T10:11:42;1.95;;;1.20;;
42420;SDS011;28063;48.140;11.588;2023-07-31T10:14:15;3.40;;;1.77;;
42420;SDS011;28063;48.140;11.588;2023-07-31T10:16:45;4.38;;;1.88;;
42420;SDS011;28063;48.140;11.588;2023-07-31T10:19:12;1.83;;;1.58;;
42420;SDS011;28063;48.140;11.588;2023-07-31T10:21:37;1.33;;;1.23;;
42420;SDS011;28063;48.140;11.588;2023-07-31T10:24:04;1.88;;;1.40;;
42420;SDS011;28063;48.140;11.588;2023-07-31T10:26:31;1.95;;;1.65;;
42420;SDS011;28063;48.140;11.588;2023-07-31T10:28:58;1.50;;;1.40;;
42420;SDS011;28063;48.140;11.588;2023-07-31T10:31:25;2.88;;;1.50;;
42420;SDS011;28063;48.140;11.588;2023-07-31T10:33:55;2.95;;;1.60;;
42420;SDS011;28063;48.140;11.588;2023-07-31T10:36:24;2.25;;;2.05;;
42420;SDS011;28063;48.140;11.588;2023-07-31T10:38:50;2.20;;;1.52;;
42420;SDS011;28063;48.140;11.588;2023-07-31T10:41:16;1.77;;;1.52;;
42420;SDS011;28063;48.140;11.588;2023-07-31T10:43:42;4.32;;;2.28;;
42420;SDS011;28063;48.140;11.588;2023-07-31T10:46:11;3.35;;;2.00;;
42420;SDS011;28063;48.140;11.588;2023-07-31T10:48:38;4.57;;;1.92;;
42420;SDS011;28063;48.140;11.588;2023-07-31T10:51:10;2.50;;;2.08;;
42420;SDS011;28063;48.140;11.588;2023-07-31T10:53:37;4.00;;;2.22;;
42420;SDS011;28063;48.140;11.588;2023-07-31T10:56:05;2.50;;;2.30;;
42420;SDS011;28063;48.140;11.588;2023-07-31T10:58:32;2.05;;;1.70;;
42420;SDS011;28063;48.140;11.588;2023-07-31T11:01:02;1.60;;;1.48;;
42420;SDS011;28063;48.140;11.588;2023-07-31T11:03:42;2.08;;;1.85;;
42420;SDS011;28063;48.140;11.588;2023-07-31T11:06:17;3.05;;;1.92;;
42420;SDS011;28063;48.140;11.588;2023-07-31T11:08:44;2.17;;;1.80;;
42420;SDS011;28063;48.140;11.588;2023-07-31T11:11:11;2.10;;;1.48;;
42420;SDS011;28063;48.140;11.588;2023-07-31T11:16:10;2.20;;;1.80;;
42420;SDS011;28063;48.140;11.588;2023-07-31T11:18:38;4.13;;;1.80;;
42420;SDS011;28063;48.140;11.588;2023-07-31T11:21:04;1.88;;;1.60;;
42420;SDS011;28063;48.140;11.588;2023-07-31T11:23:30;1.73;;;1.30;;
42420;SDS011;28063;48.140;11.588;2023-07-31T11:26:00;2.53;;;1.60;;
42420;SDS011;28063;48.140;11.588;2023-07-31T11:28:30;2.05;;;1.65;;
42420;SDS011;28063;48.140;11.588;2023-07-31T11:30:57;7.47;;;2.55;;
42420;SDS011;28063;48.140;11.588;2023-07-31T11:33:23;2.28;;;1.80;;
42420;SDS011;28063;48.140;11.588;2023-07-31T11:35:49;2.20;;;1.58;;
42420;SDS011;28063;48.140;11.588;2023-07-31T11:38:29;1.55;;;1.45;;
42420;SDS011;28063;48.140;11.588;2023-07-31T11:40:57;2.05;;;1.50;;
42420;SDS011;28063;48.140;11.588;2023-07-31T11:43:23;2.58;;;1.98;;
42420;SDS011;28063;48.140;11.588;2023-07-31T11:45:59;2.25;;;1.50;;
42420;SDS011;28063;48.140;11.588;2023-07-31T11:50:56;2.08;;;1.60;;
42420;SDS011;28063;48.140;11.588;2023-07-31T11:56:01;2.15;;;1.50;;
42420;SDS011;28063;48.140;11.588;2023-07-31T11:58:30;2.50;;;1.55;;
42420;SDS011;28063;48.140;11.588;2023-07-31T12:00:56;1.70;;;1.52;;
42420;SDS011;28063;48.140;11.588;2023-07-31T12:03:23;1.55;;;1.45;;
42420;SDS011;28063;48.140;11.588;2023-07-31T12:05:49;1.55;;;1.42;;
42420;SDS011;28063;48.140;11.588;2023-07-31T12:08:15;2.47;;;1.90;;
42420;SDS011;28063;48.140;11.588;2023-07-31T12:10:42;1.60;;;1.50;;
42420;SDS011;28063;48.140;11.588;2023-07-31T12:13:19;2.35;;;1.50;;
42420;SDS011;28063;48.140;11.588;2023-07-31T12:15:46;2.03;;;1.65;;
42420;SDS011;28063;48.140;11.588;2023-07-31T12:18:16;2.25;;;1.73;;
42420;SDS011;28063;48.140;11.588;2023-07-31T12:20:48;1.90;;;1.40;;
42420;SDS011;28063;48.140;11.588;2023-07-31T12:25:40;1.50;;;1.40;;
42420;SDS011;28063;48.140;11.588;2023-07-31T12:28:07;1.60;;;1.45;;
42420;SDS011;28063;48.140;11.588;2023-07-31T12:30:37;1.90;;;1.70;;
42420;SDS011;28063;48.140;11.588;2023-07-31T12:33:13;2.97;;;1.70;;
42420;SDS011;28063;48.140;11.588;2023-07-31T12:35:43;2.20;;;1.95;;
42420;SDS011;28063;48.140;11.588;2023-07-31T12:38:11;1.83;;;1.60;;
42420;SDS011;28063;48.140;11.588;2023-07-31T12:40:37;2.85;;;1.50;;
42420;SDS011;28063;48.140;11.588;2023-07-31T12:43:04;2.10;;;1.90;;
42420;SDS011;28063;48.140;11.588;2023-07-31T12:45:30;2.40;;;1.88;;
42420;SDS011;28063;48.140;11.588;2023-07-31T12:47:58;1.70;;;1.60;;
42420;SDS011;28063;48.140;11.588;2023-07-31T12:50:24;2.05;;;1.75;;
42420;SDS011;28063;48.140;11.588;2023-07-31T12:52:50;1.52;;;1.42;;
42420;SDS011;28063;48.140;11.588;2023-07-31T12:55:17;1.75;;;1.65;;
42420;SDS011;28063;48.140;11.588;2023-07-31T12:57:43;1.88;;;1.65;;
42420;SDS011;28063;48.140;11.588;2023-07-31T13:00:10;2.08;;;1.63;;
42420;SDS011;28063;48.140;11.588;2023-07-31T13:02:36;2.35;;;1.48;;
42420;SDS011;28063;48.140;11.588;2023-07-31T13:05:02;1.65;;;1.55;;
42420;SDS011;28063;48.140;11.588;2023-07-31T13:07:28;1.67;;;1.58;;
42420;SDS011;28063;48.140;11.588;2023-07-31T13:09:54;1.98;;;1.70;;
42420;SDS011;28063;48.140;11.588;2023-07-31T13:12:20;1.55;;;1.45;;
42420;SDS011;28063;48.140;11.588;2023-07-31T13:14:46;2.92;;;2.15;;
42420;SDS011;28063;48.140;11.588;2023-07-31T13:17:13;1.83;;;1.70;;
42420;SDS011;28063;48.140;11.588;2023-07-31T13:19:39;4.00;;;2.17;;
42420;SDS011;28063;48.140;11.588;2023-07-31T13:22:05;3.63;;;1.42;;
42420;SDS011;28063;48.140;11.588;2023-07-31T13:24:31;3.08;;;1.83;;
42420;SDS011;28063;48.140;11.588;2023-07-31T13:26:57;2.60;;;1.73;;
42420;SDS011;28063;48.140;11.588;2023-07-31T13:29:23;1.88;;;1.33;;
42420;SDS011;28063;48.140;11.588;2023-07-31T13:31:50;2.42;;;1.60;;
42420;SDS011;28063;48.140;11.588;2023-07-31T13:34:16;2.05;;;1.42;;
42420;SDS011;28063;48.140;11.588;2023-07-31T13:36:42;4.47;;;1.67;;
42420;SDS011;28063;48.140;11.588;2023-07-31T13:39:08;1.50;;;1.40;;
42420;SDS011;28063;48.140;11.588;2023-07-31T13:41:34;2.20;;;1.83;;
42420;SDS011;28063;48.140;11.588;2023-07-31T13:44:00;1.38;;;1.27;;
42420;SDS011;28063;48.140;11.588;2023-07-31T13:46:26;3.95;;;1.80;;
42420;SDS011;28063;48.140;11.588;2023-07-31T13:48:52;1.63;;;1.52;;
42420;SDS011;28063;48.140;11.588;2023-07-31T13:51:20;1.77;;;1.60;;
42420;SDS011;28063;48.140;11.588;2023-07-31T13:53:46;1.60;;;1.50;;
42420;SDS011;28063;48.140;11.588;2023-07-31T13:56:13;2.30;;;1.80;;
42420;SDS011;28063;48.140;11.588;2023-07-31T13:58:39;3.78;;;2.28;;
42420;SDS011;28063;48.140;11.588;2023-07-31T14:01:05;1.60;;;1.50;;
42420;SDS011;28063;48.140;11.588;2023-07-31T14:03:31;1.50;;;1.40;;
42420;SDS011;28063;48.140;11.588;2023-07-31T14:05:57;1.50;;;1.40;;
42420;SDS011;28063;48.140;11.588;2023-07-31T14:08:23;1.65;;;1.55;;
42420;SDS011;28063;48.140;11.588;2023-07-31T14:10:49;1.92;;;1.75;;
42420;SDS011;28063;48.140;11.588;2023-07-31T14:13:15;1.30;;;1.20;;
42420;SDS011;28063;48.140;11.588;2023-07-31T14:15:41;2.05;;;1.83;;
42420;SDS011;28063;48.140;11.588;2023-07-31T14:18:08;2.90;;;1.88;;
42420;SDS011;28063;48.140;11.588;2023-07-31T14:20:34;4.57;;;1.75;;
42420;SDS011;28063;48.140;11.588;2023-07-31T14:23:00;3.00;;;1.98;;
42420;SDS011;28063;48.140;11.588;2023-07-31T14:25:26;1.90;;;1.65;;
42420;SDS011;28063;48.140;11.588;2023-07-31T14:27:52;1.70;;;1.60;;
42420;SDS011;28063;48.140;11.588;2023-07-31T14:30:18;2.33;;;1.58;;
42420;SDS011;28063;48.140;11.588;2023-07-31T14:32:45;2.75;;;1.52;;
42420;SDS011;28063;48.140;11.588;2023-07-31T14:35:11;1.50;;;1.40;;
42420;SDS011;28063;48.140;11.588;2023-07-31T14:37:38;4.18;;;2.17;;
42420;SDS011;28063;48.140;11.588;2023-07-31T14:40:04;1.92;;;1.80;;
42420;SDS011;28063;48.140;11.588;2023-07-31T14:42:31;2.30;;;2.10;;
42420;SDS011;28063;48.140;11.588;2023-07-31T14:44:57;1.85;;;1.70;;